sensor_id;sensor_type;location;lat;lon;timestamp;pressure;altitude;pressure_sealevel;temperature;humidity
14204;BME280;7185;51.854;6.622;2023-02-28T00:00:47;102817.47;;;0.74;80.65
14204;BME280;7185;51.854;6.622;2023-02-28T00:03:18;102827.34;;;0.81;80.15
14204;BME280;7185;51.854;6.622;2023-02-28T00:05:50;102826.97;;;0.75;80.01
14204;BME280;7185;51.854;6.622;2023-02-28T00:08:21;102823.22;;;0.70;80.46
14204;BME280;7185;51.854;6.622;2023-02-28T00:10:53;102824.75;;;0.66;80.75
14204;BME280;7185;51.854;6.622;2023-02-28T00:13:26;102828.03;;;0.63;80.55
14204;BME280;7185;51.854;6.622;2023-02-28T00:16:02;102824.47;;;0.61;80.89
14204;BME280;7185;51.854;6.622;2023-02-28T00:18:34;102822.88;;;0.49;80.86
14204;BME280;7185;51.854;6.622;2023-02-28T00:21:06;102817.00;;;0.51;80.94
14204;BME280;7185;51.854;6.622;2023-02-28T00:23:38;102814.31;;;0.50;81.15
14204;BME280;7185;51.854;6.622;2023-02-28T00:26:09;102815.03;;;0.47;81.67
14204;BME280;7185;51.854;6.622;2023-02-28T00:28:42;102817.16;;;0.54;81.51
14204;BME280;7185;51.854;6.622;2023-02-28T00:31:14;102819.16;;;0.58;80.97
14204;BME280;7185;51.854;6.622;2023-02-28T00:33:45;102824.66;;;0.65;81.05
14204;BME280;7185;51.854;6.622;2023-02-28T00:36:17;102825.25;;;0.60;81.03
14204;BME280;7185;51.854;6.622;2023-02-28T00:38:49;102814.31;;;0.50;81.21
14204;BME280;7185;51.854;6.622;2023-02-28T00:41:20;102821.53;;;0.55;81.38
14204;BME280;7185;51.854;6.622;2023-02-28T00:43:53;102820.75;;;0.56;81.26
14204;BME280;7185;51.854;6.622;2023-02-28T00:46:25;102823.06;;;0.67;81.29
14204;BME280;7185;51.854;6.622;2023-02-28T00:48:56;102825.56;;;0.80;80.33
14204;BME280;7185;51.854;6.622;2023-02-28T00:51:28;102824.22;;;0.72;80.22
14204;BME280;7185;51.854;6.622;2023-02-28T00:53:59;102829.81;;;0.65;80.78
14204;BME280;7185;51.854;6.622;2023-02-28T00:56:31;102831.25;;;0.74;81.02
14204;BME280;7185;51.854;6.622;2023-02-28T00:59:04;102831.78;;;0.69;81.18
14204;BME280;7185;51.854;6.622;2023-02-28T01:01:35;102826.78;;;0.57;81.88
14204;BME280;7185;51.854;6.622;2023-02-28T01:04:07;102830.16;;;0.41;82.87
14204;BME280;7185;51.854;6.622;2023-02-28T01:06:39;102830.81;;;0.67;82.10
14204;BME280;7185;51.854;6.622;2023-02-28T01:09:11;102826.19;;;0.61;82.96
14204;BME280;7185;51.854;6.622;2023-02-28T01:11:43;102830.63;;;0.78;81.83
14204;BME280;7185;51.854;6.622;2023-02-28T01:14:17;102829.63;;;0.91;81.85
14204;BME280;7185;51.854;6.622;2023-02-28T01:16:49;102826.81;;;0.72;82.26
14204;BME280;7185;51.854;6.622;2023-02-28T01:19:21;102831.06;;;0.86;81.90
14204;BME280;7185;51.854;6.622;2023-02-28T01:21:53;102823.56;;;1.06;81.33
14204;BME280;7185;51.854;6.622;2023-02-28T01:24:24;102826.84;;;1.18;80.62
14204;BME280;7185;51.854;6.622;2023-02-28T01:26:56;102821.16;;;1.09;80.65
14204;BME280;7185;51.854;6.622;2023-02-28T01:29:29;102830.56;;;1.23;80.56
14204;BME280;7185;51.854;6.622;2023-02-28T01:32:01;102827.13;;;1.08;81.30
14204;BME280;7185;51.854;6.622;2023-02-28T01:34:32;102823.25;;;1.31;79.98
14204;BME280;7185;51.854;6.622;2023-02-28T01:37:04;102824.91;;;1.46;79.60
14204;BME280;7185;51.854;6.622;2023-02-28T01:39:35;102827.41;;;1.44;79.08
14204;BME280;7185;51.854;6.622;2023-02-28T01:42:08;102833.88;;;1.21;79.15
14204;BME280;7185;51.854;6.622;2023-02-28T01:45:02;102829.03;;;1.27;79.90
14204;BME280;7185;51.854;6.622;2023-02-28T01:47:36;102833.59;;;1.63;77.46
14204;BME280;7185;51.854;6.622;2023-02-28T01:50:14;102826.97;;;1.68;77.66
14204;BME280;7185;51.854;6.622;2023-02-28T01:52:46;102818.09;;;1.96;76.74
14204;BME280;7185;51.854;6.622;2023-02-28T01:55:21;102821.97;;;2.04;76.31
14204;BME280;7185;51.854;6.622;2023-02-28T01:57:55;102821.97;;;2.04;76.22
14204;BME280;7185;51.854;6.622;2023-02-28T02:00:30;102816.31;;;2.11;75.77
14204;BME280;7185;51.854;6.622;2023-02-28T02:03:07;102819.47;;;2.05;75.88
14204;BME280;7185;51.854;6.622;2023-02-28T02:05:40;102822.59;;;1.67;77.28
14204;BME280;7185;51.854;6.622;2023-02-28T02:08:21;102816.16;;;1.91;76.23
14204;BME280;7185;51.854;6.622;2023-02-28T02:10:55;102811.63;;;1.87;75.44
14204;BME280;7185;51.854;6.622;2023-02-28T02:13:45;102814.19;;;1.87;75.75
14204;BME280;7185;51.854;6.622;2023-02-28T02:16:35;102801.75;;;1.80;75.88
14204;BME280;7185;51.854;6.622;2023-02-28T02:19:32;102810.34;;;1.79;76.30
14204;BME280;7185;51.854;6.622;2023-02-28T02:25:28;102801.59;;;2.10;75.29
14204;BME280;7185;51.854;6.622;2023-02-28T02:31:11;102812.78;;;1.93;74.77
14204;BME280;7185;51.854;6.622;2023-02-28T02:34:28;102803.06;;;2.21;73.18
14204;BME280;7185;51.854;6.622;2023-02-28T02:37:11;102799.97;;;2.29;73.03
14204;BME280;7185;51.854;6.622;2023-02-28T02:39:50;102794.63;;;2.26;72.91
14204;BME280;7185;51.854;6.622;2023-02-28T02:42:27;102793.81;;;2.27;72.33
14204;BME280;7185;51.854;6.622;2023-02-28T02:45:03;102795.59;;;2.28;71.97
14204;BME280;7185;51.854;6.622;2023-02-28T02:47:39;102795.28;;;1.88;72.97
14204;BME280;7185;51.854;6.622;2023-02-28T02:50:15;102798.84;;;1.74;74.37
14204;BME280;7185;51.854;6.622;2023-02-28T02:52:55;102797.38;;;1.63;74.86
14204;BME280;7185;51.854;6.622;2023-02-28T02:55:27;102797.94;;;1.57;75.59
14204;BME280;7185;51.854;6.622;2023-02-28T02:58:03;102797.78;;;1.54;75.92
14204;BME280;7185;51.854;6.622;2023-02-28T03:00:42;102793.16;;;1.48;75.87
14204;BME280;7185;51.854;6.622;2023-02-28T03:03:16;102790.41;;;1.45;76.03
14204;BME280;7185;51.854;6.622;2023-02-28T03:05:52;102789.88;;;1.67;75.25
14204;BME280;7185;51.854;6.622;2023-02-28T03:08:24;102794.47;;;1.73;73.69
14204;BME280;7185;51.854;6.622;2023-02-28T03:10:57;102795.38;;;1.25;75.62
14204;BME280;7185;51.854;6.622;2023-02-28T03:13:53;102801.44;;;1.11;76.40
14204;BME280;7185;51.854;6.622;2023-02-28T03:16:34;102789.00;;;1.04;76.68
14204;BME280;7185;51.854;6.622;2023-02-28T03:19:26;102794.16;;;1.04;77.16
14204;BME280;7185;51.854;6.622;2023-02-28T03:22:12;102788.84;;;1.01;77.41
14204;BME280;7185;51.854;6.622;2023-02-28T03:24:49;102799.00;;;0.98;77.92
14204;BME280;7185;51.854;6.622;2023-02-28T03:27:24;102786.72;;;0.93;78.16
14204;BME280;7185;51.854;6.622;2023-02-28T03:30:02;102794.91;;;0.86;78.63
14204;BME280;7185;51.854;6.622;2023-02-28T03:32:37;102795.38;;;0.79;79.07
14204;BME280;7185;51.854;6.622;2023-02-28T03:35:14;102795.81;;;0.72;79.80
14204;BME280;7185;51.854;6.622;2023-02-28T03:37:56;102797.59;;;0.73;80.53
14204;BME280;7185;51.854;6.622;2023-02-28T03:40:33;102799.09;;;0.84;79.62
14204;BME280;7185;51.854;6.622;2023-02-28T03:43:10;102795.59;;;0.99;80.09
14204;BME280;7185;51.854;6.622;2023-02-28T03:45:44;102798.84;;;0.94;79.88
14204;BME280;7185;51.854;6.622;2023-02-28T03:48:20;102807.72;;;0.85;79.84
14204;BME280;7185;51.854;6.622;2023-02-28T03:50:55;102807.63;;;0.83;80.00
14204;BME280;7185;51.854;6.622;2023-02-28T03:53:31;102805.34;;;0.73;80.49
14204;BME280;7185;51.854;6.622;2023-02-28T03:56:07;102795.78;;;1.02;79.37
14204;BME280;7185;51.854;6.622;2023-02-28T03:58:47;102802.41;;;0.82;80.89
14204;BME280;7185;51.854;6.622;2023-02-28T04:01:23;102800.25;;;0.74;81.67
14204;BME280;7185;51.854;6.622;2023-02-28T04:03:56;102793.38;;;0.75;81.43
14204;BME280;7185;51.854;6.622;2023-02-28T04:06:30;102789.41;;;0.80;81.47
14204;BME280;7185;51.854;6.622;2023-02-28T04:09:06;102792.22;;;0.85;81.56
14204;BME280;7185;51.854;6.622;2023-02-28T04:11:40;102797.31;;;0.98;81.21
14204;BME280;7185;51.854;6.622;2023-02-28T04:14:12;102798.13;;;0.97;81.53
14204;BME280;7185;51.854;6.622;2023-02-28T04:16:44;102797.47;;;1.01;81.10
14204;BME280;7185;51.854;6.622;2023-02-28T04:19:16;102802.22;;;0.93;81.42
14204;BME280;7185;51.854;6.622;2023-02-28T04:21:49;102791.69;;;0.90;81.73
14204;BME280;7185;51.854;6.622;2023-02-28T04:24:24;102804.69;;;1.07;81.42
14204;BME280;7185;51.854;6.622;2023-02-28T04:26:57;102803.53;;;0.87;80.97
14204;BME280;7185;51.854;6.622;2023-02-28T04:29:31;102802.47;;;0.83;80.69
14204;BME280;7185;51.854;6.622;2023-02-28T04:32:03;102801.53;;;0.81;81.06
14204;BME280;7185;51.854;6.622;2023-02-28T04:34:35;102800.03;;;1.16;78.30
14204;BME280;7185;51.854;6.622;2023-02-28T04:37:07;102806.16;;;0.72;80.06
14204;BME280;7185;51.854;6.622;2023-02-28T04:39:40;102801.31;;;0.78;80.08
14204;BME280;7185;51.854;6.622;2023-02-28T04:42:12;102809.00;;;0.76;79.75
14204;BME280;7185;51.854;6.622;2023-02-28T04:44:44;102809.53;;;0.71;79.09
14204;BME280;7185;51.854;6.622;2023-02-28T04:47:17;102810.75;;;0.62;79.48
14204;BME280;7185;51.854;6.622;2023-02-28T04:49:48;102819.16;;;0.58;79.72
14204;BME280;7185;51.854;6.622;2023-02-28T04:52:20;102816.81;;;0.48;80.21
14204;BME280;7185;51.854;6.622;2023-02-28T04:54:53;102814.50;;;0.53;80.20
14204;BME280;7185;51.854;6.622;2023-02-28T04:57:25;102812.44;;;0.47;80.18
14204;BME280;7185;51.854;6.622;2023-02-28T04:59:56;102814.84;;;0.44;80.29
14204;BME280;7185;51.854;6.622;2023-02-28T05:02:28;102817.59;;;0.47;80.22
14204;BME280;7185;51.854;6.622;2023-02-28T05:05:00;102813.44;;;0.49;80.43
14204;BME280;7185;51.854;6.622;2023-02-28T05:07:31;102821.81;;;0.45;80.81
14204;BME280;7185;51.854;6.622;2023-02-28T05:10:05;102818.59;;;0.49;80.54
14204;BME280;7185;51.854;6.622;2023-02-28T05:12:37;102823.63;;;0.32;80.86
14204;BME280;7185;51.854;6.622;2023-02-28T05:15:12;102822.69;;;0.30;80.80
14204;BME280;7185;51.854;6.622;2023-02-28T05:17:44;102825.41;;;0.19;81.11
14204;BME280;7185;51.854;6.622;2023-02-28T05:20:16;102829.56;;;0.17;81.08
14204;BME280;7185;51.854;6.622;2023-02-28T05:22:49;102826.06;;;0.01;81.48
14204;BME280;7185;51.854;6.622;2023-02-28T05:25:22;102831.69;;;0.09;81.41
14204;BME280;7185;51.854;6.622;2023-02-28T05:27:54;102836.13;;;-0.04;81.79
14204;BME280;7185;51.854;6.622;2023-02-28T05:30:25;102837.44;;;0.05;82.09
14204;BME280;7185;51.854;6.622;2023-02-28T05:32:57;102832.72;;;-0.03;82.34
14204;BME280;7185;51.854;6.622;2023-02-28T05:35:29;102835.41;;;-0.01;82.07
14204;BME280;7185;51.854;6.622;2023-02-28T05:38:01;102838.50;;;-0.07;82.12
14204;BME280;7185;51.854;6.622;2023-02-28T05:40:34;102839.13;;;-0.11;82.17
14204;BME280;7185;51.854;6.622;2023-02-28T05:43:10;102835.44;;;0.14;81.08
14204;BME280;7185;51.854;6.622;2023-02-28T05:45:41;102846.84;;;0.32;79.91
14204;BME280;7185;51.854;6.622;2023-02-28T05:48:13;102845.28;;;-0.22;82.36
14204;BME280;7185;51.854;6.622;2023-02-28T05:50:50;102845.91;;;-0.40;83.00
14204;BME280;7185;51.854;6.622;2023-02-28T05:53:22;102850.88;;;-0.43;83.57
14204;BME280;7185;51.854;6.622;2023-02-28T05:55:55;102856.34;;;-0.52;83.91
14204;BME280;7185;51.854;6.622;2023-02-28T05:58:27;102846.91;;;-0.51;83.97
14204;BME280;7185;51.854;6.622;2023-02-28T06:01:19;102855.63;;;-0.49;84.07
14204;BME280;7185;51.854;6.622;2023-02-28T06:03:51;102857.03;;;-0.54;84.35
14204;BME280;7185;51.854;6.622;2023-02-28T06:06:22;102853.69;;;-0.53;84.23
14204;BME280;7185;51.854;6.622;2023-02-28T06:08:54;102863.28;;;-0.51;84.09
14204;BME280;7185;51.854;6.622;2023-02-28T06:11:27;102858.13;;;-0.09;81.75
14204;BME280;7185;51.854;6.622;2023-02-28T06:14:00;102858.28;;;0.08;80.70
14204;BME280;7185;51.854;6.622;2023-02-28T06:16:34;102868.03;;;-0.43;82.95
14204;BME280;7185;51.854;6.622;2023-02-28T06:19:05;102865.94;;;-0.49;83.75
14204;BME280;7185;51.854;6.622;2023-02-28T06:21:37;102870.41;;;-0.60;84.11
14204;BME280;7185;51.854;6.622;2023-02-28T06:24:09;102865.56;;;-0.55;84.48
14204;BME280;7185;51.854;6.622;2023-02-28T06:26:42;102878.84;;;-0.62;84.22
14204;BME280;7185;51.854;6.622;2023-02-28T06:29:14;102870.00;;;-0.53;84.62
14204;BME280;7185;51.854;6.622;2023-02-28T06:31:47;102869.53;;;-0.60;84.35
14204;BME280;7185;51.854;6.622;2023-02-28T06:34:19;102873.88;;;-0.59;84.60
14204;BME280;7185;51.854;6.622;2023-02-28T06:36:51;102871.19;;;-0.61;84.78
14204;BME280;7185;51.854;6.622;2023-02-28T06:39:23;102882.00;;;-0.67;84.85
14204;BME280;7185;51.854;6.622;2023-02-28T06:41:56;102877.25;;;-0.74;84.59
14204;BME280;7185;51.854;6.622;2023-02-28T06:44:27;102881.41;;;-0.76;85.35
14204;BME280;7185;51.854;6.622;2023-02-28T06:47:05;102882.91;;;-0.66;84.66
14204;BME280;7185;51.854;6.622;2023-02-28T06:49:37;102882.41;;;-0.60;84.68
14204;BME280;7185;51.854;6.622;2023-02-28T06:52:09;102891.03;;;-0.60;84.41
14204;BME280;7185;51.854;6.622;2023-02-28T06:54:41;102886.97;;;-0.56;85.03
14204;BME280;7185;51.854;6.622;2023-02-28T06:57:13;102892.13;;;-0.56;85.02
14204;BME280;7185;51.854;6.622;2023-02-28T06:59:45;102889.81;;;-0.38;85.20
14204;BME280;7185;51.854;6.622;2023-02-28T07:02:17;102897.50;;;-0.11;85.67
14204;BME280;7185;51.854;6.622;2023-02-28T07:04:48;102882.81;;;0.29;86.32
14204;BME280;7185;51.854;6.622;2023-02-28T07:07:20;102883.81;;;0.90;85.07
14204;BME280;7185;51.854;6.622;2023-02-28T07:09:52;102886.56;;;1.54;83.61
14204;BME280;7185;51.854;6.622;2023-02-28T07:12:25;102878.44;;;2.28;82.10
14204;BME280;7185;51.854;6.622;2023-02-28T07:14:56;102888.56;;;2.91;78.34
14204;BME280;7185;51.854;6.622;2023-02-28T07:17:28;102890.59;;;3.32;75.16
14204;BME280;7185;51.854;6.622;2023-02-28T07:19:59;102889.75;;;3.51;72.22
14204;BME280;7185;51.854;6.622;2023-02-28T07:22:31;102891.91;;;3.42;69.59
14204;BME280;7185;51.854;6.622;2023-02-28T07:25:02;102895.63;;;3.29;68.81
14204;BME280;7185;51.854;6.622;2023-02-28T07:27:35;102891.81;;;3.77;69.43
14204;BME280;7185;51.854;6.622;2023-02-28T07:30:08;102893.44;;;4.52;67.45
14204;BME280;7185;51.854;6.622;2023-02-28T07:32:40;102888.97;;;5.32;64.53
14204;BME280;7185;51.854;6.622;2023-02-28T07:35:12;102885.50;;;6.22;61.66
14204;BME280;7185;51.854;6.622;2023-02-28T07:37:45;102889.81;;;6.96;58.81
14204;BME280;7185;51.854;6.622;2023-02-28T07:40:17;102890.50;;;7.73;54.19
14204;BME280;7185;51.854;6.622;2023-02-28T07:42:50;102890.34;;;8.27;51.47
14204;BME280;7185;51.854;6.622;2023-02-28T07:45:22;102886.81;;;8.89;49.83
14204;BME280;7185;51.854;6.622;2023-02-28T07:47:53;102892.00;;;9.63;46.51
14204;BME280;7185;51.854;6.622;2023-02-28T07:50:25;102885.88;;;10.02;45.44
14204;BME280;7185;51.854;6.622;2023-02-28T07:52:59;102885.25;;;10.58;42.96
14204;BME280;7185;51.854;6.622;2023-02-28T07:55:30;102889.56;;;11.05;41.32
14204;BME280;7185;51.854;6.622;2023-02-28T07:58:03;102888.34;;;11.38;40.64
14204;BME280;7185;51.854;6.622;2023-02-28T08:00:35;102880.34;;;11.95;39.70
14204;BME280;7185;51.854;6.622;2023-02-28T08:03:08;102889.31;;;12.09;38.88
14204;BME280;7185;51.854;6.622;2023-02-28T08:05:42;102895.19;;;11.91;37.31
14204;BME280;7185;51.854;6.622;2023-02-28T08:08:14;102884.47;;;12.43;36.40
14204;BME280;7185;51.854;6.622;2023-02-28T08:10:45;102880.28;;;12.64;35.76
14204;BME280;7185;51.854;6.622;2023-02-28T08:13:19;102890.22;;;12.13;34.37
14204;BME280;7185;51.854;6.622;2023-02-28T08:15:50;102895.59;;;12.19;35.64
14204;BME280;7185;51.854;6.622;2023-02-28T08:18:23;102884.81;;;12.81;34.80
14204;BME280;7185;51.854;6.622;2023-02-28T08:20:54;102879.00;;;13.22;34.23
14204;BME280;7185;51.854;6.622;2023-02-28T08:23:26;102882.53;;;13.21;32.70
14204;BME280;7185;51.854;6.622;2023-02-28T08:25:58;102879.19;;;13.50;32.84
14204;BME280;7185;51.854;6.622;2023-02-28T08:28:31;102883.56;;;13.42;31.19
14204;BME280;7185;51.854;6.622;2023-02-28T08:31:09;102879.19;;;13.50;32.00
14204;BME280;7185;51.854;6.622;2023-02-28T08:33:41;102882.47;;;13.16;32.30
14204;BME280;7185;51.854;6.622;2023-02-28T08:36:14;102879.72;;;12.99;32.22
14204;BME280;7185;51.854;6.622;2023-02-28T08:38:46;102877.56;;;13.69;30.64
14204;BME280;7185;51.854;6.622;2023-02-28T08:41:18;102888.19;;;13.83;30.84
14204;BME280;7185;51.854;6.622;2023-02-28T08:43:51;102887.22;;;13.65;30.15
14204;BME280;7185;51.854;6.622;2023-02-28T08:46:23;102887.22;;;13.62;29.91
14204;BME280;7185;51.854;6.622;2023-02-28T08:48:56;102887.22;;;13.68;29.64
14204;BME280;7185;51.854;6.622;2023-02-28T08:51:30;102881.97;;;13.71;29.47
14204;BME280;7185;51.854;6.622;2023-02-28T08:54:02;102889.63;;;13.34;29.93
14204;BME280;7185;51.854;6.622;2023-02-28T08:56:34;102885.56;;;13.91;29.75
14204;BME280;7185;51.854;6.622;2023-02-28T08:59:09;102887.06;;;13.44;29.79
14204;BME280;7185;51.854;6.622;2023-02-28T09:01:41;102888.53;;;13.07;30.49
14204;BME280;7185;51.854;6.622;2023-02-28T09:04:14;102882.03;;;13.87;28.34
14204;BME280;7185;51.854;6.622;2023-02-28T09:06:46;102884.53;;;13.59;30.64
14204;BME280;7185;51.854;6.622;2023-02-28T09:09:18;102875.97;;;14.03;29.25
14204;BME280;7185;51.854;6.622;2023-02-28T09:11:50;102885.38;;;13.50;28.32
14204;BME280;7185;51.854;6.622;2023-02-28T09:14:23;102885.19;;;13.27;29.48
14204;BME280;7185;51.854;6.622;2023-02-28T09:16:54;102880.91;;;13.38;30.25
14204;BME280;7185;51.854;6.622;2023-02-28T09:19:26;102883.72;;;13.73;28.71
14204;BME280;7185;51.854;6.622;2023-02-28T09:21:58;102877.72;;;13.98;28.75
14204;BME280;7185;51.854;6.622;2023-02-28T09:24:29;102868.91;;;13.95;27.62
14204;BME280;7185;51.854;6.622;2023-02-28T09:30:30;102864.50;;;13.97;26.96
14204;BME280;7185;51.854;6.622;2023-02-28T09:33:02;102863.78;;;14.58;26.69
14204;BME280;7185;51.854;6.622;2023-02-28T09:35:34;102857.66;;;14.78;27.53
14204;BME280;7185;51.854;6.622;2023-02-28T09:38:07;102861.94;;;14.23;26.71
14204;BME280;7185;51.854;6.622;2023-02-28T09:40:45;102863.66;;;14.04;25.89
14204;BME280;7185;51.854;6.622;2023-02-28T09:43:21;102860.25;;;14.47;25.99
14204;BME280;7185;51.854;6.622;2023-02-28T09:46:00;102863.69;;;14.15;26.85
14204;BME280;7185;51.854;6.622;2023-02-28T09:48:36;102862.63;;;13.68;26.30
14204;BME280;7185;51.854;6.622;2023-02-28T09:51:21;102854.03;;;14.17;26.33
14204;BME280;7185;51.854;6.622;2023-02-28T09:53:58;102858.34;;;13.90;27.40
14204;BME280;7185;51.854;6.622;2023-02-28T09:56:36;102865.78;;;13.13;27.71
14204;BME280;7185;51.854;6.622;2023-02-28T09:59:14;102860.03;;;11.82;29.44
14204;BME280;7185;51.854;6.622;2023-02-28T10:01:56;102866.59;;;12.15;29.07
14204;BME280;7185;51.854;6.622;2023-02-28T10:04:40;102864.00;;;12.18;28.97
14204;BME280;7185;51.854;6.622;2023-02-28T10:07:21;102859.66;;;12.20;29.21
14204;BME280;7185;51.854;6.622;2023-02-28T10:09:58;102850.16;;;12.36;29.59
14204;BME280;7185;51.854;6.622;2023-02-28T10:12:33;102849.41;;;12.46;28.84
14204;BME280;7185;51.854;6.622;2023-02-28T10:15:13;102845.69;;;13.27;28.27
14204;BME280;7185;51.854;6.622;2023-02-28T10:17:53;102857.25;;;13.48;27.73
14204;BME280;7185;51.854;6.622;2023-02-28T10:20:44;102854.41;;;13.20;27.72
14204;BME280;7185;51.854;6.622;2023-02-28T10:23:28;102849.31;;;13.45;26.65
14204;BME280;7185;51.854;6.622;2023-02-28T10:26:11;102841.53;;;13.68;27.25
14204;BME280;7185;51.854;6.622;2023-02-28T10:28:43;102852.72;;;13.31;26.22
14204;BME280;7185;51.854;6.622;2023-02-28T10:31:18;102845.94;;;13.74;27.41
14204;BME280;7185;51.854;6.622;2023-02-28T10:33:51;102843.44;;;14.05;26.59
14204;BME280;7185;51.854;6.622;2023-02-28T10:36:23;102851.81;;;13.29;27.33
14204;BME280;7185;51.854;6.622;2023-02-28T10:38:55;102855.56;;;13.65;26.03
14204;BME280;7185;51.854;6.622;2023-02-28T10:41:28;102845.69;;;13.30;27.09
14204;BME280;7185;51.854;6.622;2023-02-28T10:44:16;102844.44;;;12.79;27.68
14204;BME280;7185;51.854;6.622;2023-02-28T10:46:50;102836.38;;;13.97;26.71
14204;BME280;7185;51.854;6.622;2023-02-28T10:49:26;102843.53;;;14.37;26.54
14204;BME280;7185;51.854;6.622;2023-02-28T10:51:59;102847.56;;;13.39;27.54
14204;BME280;7185;51.854;6.622;2023-02-28T10:54:34;102841.63;;;13.90;27.02
14204;BME280;7185;51.854;6.622;2023-02-28T10:57:15;102832.72;;;13.64;27.54
14204;BME280;7185;51.854;6.622;2023-02-28T10:59:51;102829.00;;;13.28;27.17
14204;BME280;7185;51.854;6.622;2023-02-28T11:02:31;102821.41;;;13.90;25.63
14204;BME280;7185;51.854;6.622;2023-02-28T11:05:25;102827.44;;;13.64;26.28
14204;BME280;7185;51.854;6.622;2023-02-28T11:08:04;102822.09;;;13.44;25.25
14204;BME280;7185;51.854;6.622;2023-02-28T11:10:37;102818.31;;;13.10;27.01
14204;BME280;7185;51.854;6.622;2023-02-28T11:13:17;102819.72;;;14.14;26.41
14204;BME280;7185;51.854;6.622;2023-02-28T11:15:51;102825.00;;;14.25;26.31
14204;BME280;7185;51.854;6.622;2023-02-28T11:18:27;102832.94;;;14.42;24.62
14204;BME280;7185;51.854;6.622;2023-02-28T11:21:02;102823.19;;;13.93;26.41
14204;BME280;7185;51.854;6.622;2023-02-28T11:23:35;102818.88;;;14.49;26.01
14204;BME280;7185;51.854;6.622;2023-02-28T11:26:08;102818.06;;;14.76;25.97
14204;BME280;7185;51.854;6.622;2023-02-28T11:28:42;102820.88;;;12.99;25.11
14204;BME280;7185;51.854;6.622;2023-02-28T11:31:18;102830.25;;;14.06;25.09
14204;BME280;7185;51.854;6.622;2023-02-28T11:33:53;102830.34;;;14.54;24.98
14204;BME280;7185;51.854;6.622;2023-02-28T11:36:29;102826.81;;;14.57;25.72
14204;BME280;7185;51.854;6.622;2023-02-28T11:39:08;102820.63;;;15.27;25.44
14204;BME280;7185;51.854;6.622;2023-02-28T11:41:58;102822.44;;;15.07;24.57
14204;BME280;7185;51.854;6.622;2023-02-28T11:44:47;102827.63;;;14.18;25.97
14204;BME280;7185;51.854;6.622;2023-02-28T11:47:30;102817.13;;;15.16;24.68
14204;BME280;7185;51.854;6.622;2023-02-28T11:50:15;102811.81;;;15.19;24.25
14204;BME280;7185;51.854;6.622;2023-02-28T11:52:52;102813.66;;;14.89;25.12
14204;BME280;7185;51.854;6.622;2023-02-28T11:55:26;102813.47;;;15.64;24.17
14204;BME280;7185;51.854;6.622;2023-02-28T11:58:14;102813.63;;;15.17;25.12
14204;BME280;7185;51.854;6.622;2023-02-28T12:01:08;102814.47;;;15.25;25.30
14204;BME280;7185;51.854;6.622;2023-02-28T12:03:45;102807.47;;;15.13;25.26
14204;BME280;7185;51.854;6.622;2023-02-28T12:06:23;102794.22;;;15.17;25.85
14204;BME280;7185;51.854;6.622;2023-02-28T12:09:08;102800.41;;;15.17;25.34
14204;BME280;7185;51.854;6.622;2023-02-28T12:11:50;102790.41;;;15.98;24.23
14204;BME280;7185;51.854;6.622;2023-02-28T12:14:50;102780.88;;;16.89;24.31
14204;BME280;7185;51.854;6.622;2023-02-28T12:17:39;102779.44;;;17.41;22.41
14204;BME280;7185;51.854;6.622;2023-02-28T12:20:23;102774.72;;;17.66;23.23
14204;BME280;7185;51.854;6.622;2023-02-28T12:25:55;102773.09;;;18.19;22.79
14204;BME280;7185;51.854;6.622;2023-02-28T12:28:34;102755.31;;;18.24;22.67
14204;BME280;7185;51.854;6.622;2023-02-28T12:31:11;102749.69;;;18.94;21.66
14204;BME280;7185;51.854;6.622;2023-02-28T12:33:48;102752.38;;;18.42;21.22
14204;BME280;7185;51.854;6.622;2023-02-28T12:36:22;102759.53;;;18.37;21.75
14204;BME280;7185;51.854;6.622;2023-02-28T12:38:56;102747.94;;;18.94;22.15
14204;BME280;7185;51.854;6.622;2023-02-28T12:41:33;102750.00;;;18.25;20.98
14204;BME280;7185;51.854;6.622;2023-02-28T12:44:07;102745.72;;;17.54;22.24
14204;BME280;7185;51.854;6.622;2023-02-28T12:46:41;102746.81;;;18.56;22.37
14204;BME280;7185;51.854;6.622;2023-02-28T12:49:15;102740.25;;;18.76;21.97
14204;BME280;7185;51.854;6.622;2023-02-28T12:51:48;102729.25;;;18.99;20.80
14204;BME280;7185;51.854;6.622;2023-02-28T12:54:22;102732.97;;;18.37;22.12
14204;BME280;7185;51.854;6.622;2023-02-28T12:56:58;102728.59;;;18.85;22.40
14204;BME280;7185;51.854;6.622;2023-02-28T12:59:34;102716.38;;;16.93;21.69
14204;BME280;7185;51.854;6.622;2023-02-28T13:05:17;102716.03;;;18.46;22.19
14204;BME280;7185;51.854;6.622;2023-02-28T13:08:03;102713.63;;;19.26;22.02
14204;BME280;7185;51.854;6.622;2023-02-28T13:10:42;102717.16;;;18.81;21.97
14204;BME280;7185;51.854;6.622;2023-02-28T13:13:16;102711.88;;;19.25;21.76
14204;BME280;7185;51.854;6.622;2023-02-28T13:15:59;102704.56;;;19.35;20.86
14204;BME280;7185;51.854;6.622;2023-02-28T13:18:35;102699.19;;;19.36;21.79
14204;BME280;7185;51.854;6.622;2023-02-28T13:21:09;102698.38;;;18.92;21.68
14204;BME280;7185;51.854;6.622;2023-02-28T13:24:00;102697.75;;;20.01;21.61
14204;BME280;7185;51.854;6.622;2023-02-28T13:29:26;102691.22;;;20.82;20.37
14204;BME280;7185;51.854;6.622;2023-02-28T13:37:36;102700.28;;;20.41;20.74
14204;BME280;7185;51.854;6.622;2023-02-28T13:40:31;102685.81;;;21.45;20.30
14204;BME280;7185;51.854;6.622;2023-02-28T13:43:07;102685.69;;;21.20;19.55
14204;BME280;7185;51.854;6.622;2023-02-28T13:45:44;102691.59;;;21.30;19.57
14204;BME280;7185;51.854;6.622;2023-02-28T13:48:32;102702.44;;;19.51;20.30
14204;BME280;7185;51.854;6.622;2023-02-28T13:53:54;102684.28;;;19.31;21.33
14204;BME280;7185;51.854;6.622;2023-02-28T13:56:36;102693.03;;;19.36;21.44
14204;BME280;7185;51.854;6.622;2023-02-28T13:59:16;102684.38;;;19.65;21.51
14204;BME280;7185;51.854;6.622;2023-02-28T14:01:55;102682.19;;;19.84;20.76
14204;BME280;7185;51.854;6.622;2023-02-28T14:04:49;102682.25;;;19.80;21.60
14204;BME280;7185;51.854;6.622;2023-02-28T14:07:24;102674.25;;;20.85;20.13
14204;BME280;7185;51.854;6.622;2023-02-28T14:09:59;102676.59;;;19.95;21.02
14204;BME280;7185;51.854;6.622;2023-02-28T14:15:27;102678.59;;;19.05;21.23
14204;BME280;7185;51.854;6.622;2023-02-28T14:18:00;102685.19;;;20.06;21.58